Agustin Olivera

Recruteur en chef - Liverpool Montevideo
15 Oct 2028
Dimanche
Processus

Personnalité

Adaptabilité (20) Ambition (1) Controverse (8) Loyauté (15) Pression (6) Professionnalisme (8) Sportivité (10) Tempérament (9)

Profil

Style d'entraînement Démocratique
Diplôme National B
Détermination 6
Gestion des joueurs 7
Motivation 6
Discipline 8
Satisfaction professionnelle
100%
Fatigue
0%
Rôle Recruteur en chef
Salaire 35.9K p/s
Contrat 14.03.2029

Performance

Comportement Bon
Efficacité de l'entraînement
43%
Développement des joueurs
25%
Prévention des blessures
50%
Mise en place tactique
40%

Événements récents

A participé à une réunion de recrutement maintenant
A recommandé une cible de transfert maintenant
A recommandé une cible de transfert maintenant
A participé à une réunion de recrutement 7j
A recommandé une cible de transfert 7j
A recommandé une cible de transfert 7j
A recommandé une cible de transfert 7j
A recommandé une cible de transfert 7j

Suivi en cours

135
Joueur Club Statut Capacité Confiance Observé Dernière observation Dernier vote
Diego Méndez Tacuarembo Actif 99 / 99 30% 1 / 1m 26.07.2028 -
Dudu Rampla Juniors Actif 92 / 97 30% 1 / 1m 26.07.2028 -
Tobiáš Pališčák Zlin Actif 98 / 120 40% 2 12.07.2028 -
Jan Bürger Northampton Town Actif 113 / 131 40% 1 12.07.2028 -
Celías Ingenthron Platense Actif 110 / 121 40% 5 03.07.2028 -
Abubakar Adams Aduana Stars Actif 88 / 87 40% 2 03.07.2028 -
Riquelme Thompson-Jones Accrington Stanley Actif 114 / 109 40% 4 26.05.2028 -
Bernardo Lima Porto Actif 111 / 125 40% 4 26.05.2028 -
Olivier Leroux Mouscron Actif 104 / 116 40% 1 25.05.2028 -
Giovanni Leoni Lincoln City Actif 129 / 142 40% 3 24.05.2028 -
Gael Moreno Morelia Actif 61 / 75 40% 2 21.05.2028 -
Honest Ahanor Atalanta Actif 134 / 133 40% 2 21.05.2028 -
Enzo Acosta Tacuarembo Actif 83 / 86 30% 1 / 1m 17.05.2028 -
Trey Nyoni Rotherham United Actif 135 / 139 40% 1 17.05.2028 -
Josh Nichols Oldham Athletic Actif 113 / 131 40% 6 13.05.2028 -
Daniel Banjaqui Benfica Actif 111 / 133 40% 3 12.05.2028 -
Christos Mouzakitis Hull City Actif 133 / 140 40% 4 12.05.2028 -
Ayden Heaven Portsmouth Actif 134 / 146 40% 3 11.05.2028 -
Nicolò Moranduzzo Renate Actif 86 / 103 40% 1 08.05.2028 -
Tyler Fletcher Rotherham United Actif 111 / 110 40% 3 07.05.2028 -
Jorthy Mokio ADO Den Haag Actif 136 / 133 40% 1 05.05.2028 -
Martim Cunha Porto Actif 102 / 110 40% 2 03.05.2028 -
Kwesi Sorotu Badori Berekum Chelsea Actif 102 / 113 40% 1 30.04.2028 -
Matvey Bardachev Zenit Actif 120 / 117 40% 1 15.04.2028 -
Josh Acheampong Everton Actif 132 / 141 40% 2 14.04.2028 -
Alejandro Almaraz NK Celje Actif 116 / 123 40% 1 10.04.2028 -
Kiani Inge Groningen Actif 103 / 117 40% 1 05.04.2028 -
Nahuel Leivas Montevideo City Torque Actif 97 / 108 40% 1 07.02.2028 -
Mao Hosoya Santos Actif 134 / 135 67% 1 20.12.2027 Approuver
Douglas Jardel Tacuarembo Actif 106 / 110 62% 1 20.12.2027 Approuver
Colin Guske Orlando City Actif 95 / 104 40% 1 30.11.2027 -
Milan van Ewijk Coventry City Actif 139 / 130 40% 6 30.05.2027 -
Toby Collyer West Bromwich Albion Actif 131 / 133 40% 1 30.05.2027 -
Lee Buchanan Sheffield Wednesday Actif 129 / 131 40% 3 29.05.2027 -
Will Fish Cardiff City Actif 109 / 117 40% 2 28.05.2027 -
Pablo García Gijón Actif 107 / 100 40% 2 26.05.2027 -
Aaron Morley Wycombe Wanderers Actif 115 / 121 40% 1 20.05.2027 -
Jacques Ekomié Wrexham Actif 118 / 140 40% 2 18.05.2027 -
Luke McNally Bristol City Actif 126 / 136 40% 4 18.05.2027 -
Bosun Lawal Stoke City Actif 115 / 125 40% 4 15.05.2027 -
Florentino Luís Ipswich Town Actif 147 / 144 40% 4 15.05.2027 -
Lewis Ferguson Bologna Actif 131 / 148 40% 1 13.05.2027 -
Harry Clarke Preston Actif 135 / 133 40% 1 12.05.2027 -
Ethan Pye Stockport County Actif 114 / 128 40% 3 07.05.2027 -
Adrián Bernabé Parma Actif 127 / 148 40% 1 02.05.2027 -
Dennis Cirkin Queens Park Rangers Actif 140 / 120 40% 3 01.05.2027 -
Idris El Mizouni Leyton Orient Actif 126 / 116 40% 1 01.05.2027 -
Habib Diarra Sunderland Actif 152 / 146 40% 1 29.04.2027 -
Joel Bagan Cardiff City Actif 123 / 115 40% 3 28.04.2027 -
Derry Murkin Derby County Actif 122 / 119 40% 2 25.04.2027 -
Mitchel Bakker Modena Actif 143 / 118 40% 1 22.04.2027 -
Max Bird Birmingham Actif 133 / 121 40% 2 18.04.2027 -
Jack Currie Oxford United Actif 114 / 117 40% 1 18.04.2027 -
Brian De Keersmaecker Oxford United Actif 123 / 115 40% 1 16.04.2027 -
Hector Kyprianou Watford Actif 115 / 128 40% 1 16.04.2027 -
Lucas Da Cunha Como Actif 135 / 141 40% 2 15.04.2027 -
Ronnie Edwards Queens Park Rangers Actif 127 / 130 40% 1 13.04.2027 -
Oliver Skipp Leicester City Actif 121 / 137 40% 3 10.04.2027 -
Jacob Greaves Ipswich Town Actif 143 / 142 40% 4 05.04.2027 -
Brooke Norton-Cuffy Hull City Actif 139 / 138 40% 4 02.04.2027 -
Nathan Moriah-Welsh Mansfield Town Actif 102 / 114 40% 1 02.04.2027 -
Alfie Devine Preston Actif 128 / 118 40% 1 01.04.2027 -
Lewis Gibson Preston Actif 116 / 124 40% 2 27.03.2027 -
Darlin Yongwa Norwich City Actif 117 / 116 40% 3 20.03.2027 -
Georgie Gent Barnsley Actif 96 / 108 40% 3 15.03.2027 -
Jonathan Varane Queens Park Rangers Actif 141 / 122 40% 3 14.03.2027 -
Aidan Morris Middlesbrough Actif 129 / 122 40% 1 11.03.2027 -
Welington Southampton Actif 121 / 129 40% 1 10.03.2027 -
Harrison Burrows Sheffield United Actif 125 / 126 40% 1 03.03.2027 -
Max Johnston Derby County Actif 125 / 126 40% 2 23.02.2027 -
Tariq Lamptey Queens Park Rangers Actif 140 / 132 40% 1 20.02.2027 -
Shea Charles Southampton Actif 149 / 135 40% 1 18.02.2027 -
Alfie Gilchrist West Bromwich Albion Actif 128 / 124 40% 2 16.02.2027 -
Japhet Tanganga Sheffield United Actif 144 / 120 40% 1 16.02.2027 -
Álex Centelles Levski Actif 135 / 114 40% 1 11.02.2027 -
Kristoffer Lund Birmingham Actif 137 / 125 40% 1 08.02.2027 -
Aldair Faustino Levski Actif 123 / 108 40% 1 07.02.2027 -
Brooklyn Poggenpoel Maritzburg United Actif 94 / 107 40% 1 05.02.2027 -
Caspar Jander Southampton Actif 141 / 130 40% 1 03.02.2027 -
Agustín Pérez Juventud Actif 81 / 97 62% 1 21.12.2026 Approuver
Sampson Dweh Mallorca Actif 133 / 134 66% 1 01.12.2026 Approuver
David Turnbull Cardiff City Actif 109 / 112 40% 1 27.11.2026 -
Matthias Seidl Rapid Wien Actif 128 / 118 40% 1 27.11.2026 -
Thomas Carrique Andorra Actif 120 / 115 40% 2 26.11.2026 -
Fiete Arp OB Actif 143 / 120 40% 1 26.11.2026 -
Oswin Appollis Orlando Pirates Actif 123 / 111 40% 2 25.11.2026 -
Bongani Zungu Ajax Cape Town Actif 130 / 127 40% 2 22.11.2026 -
Brian Orosco Godoy Cruz Actif 109 / 113 40% 1 21.11.2026 -
Mariano Bracamonte Deportivo Riestra Actif 124 / 114 40% 3 20.11.2026 -
Gorka Gorosabel Real Sociedad Actif 98 / 107 40% 1 20.11.2026 -
Petar Stanić Ludogorets Actif 131 / 136 40% 2 15.11.2026 -
Jordan Lotomba Bloemfontein Celtic Actif 135 / 135 40% 2 14.11.2026 -
Marcelo Allende Mamelodi Sundowns Actif 130 / 139 40% 1 14.11.2026 -
Juan Pablo Gallego Fehervar Actif 98 / 110 40% 1 13.11.2026 -
Edu Expósito Espanyol Actif 150 / 127 40% 2 12.11.2026 -
Teboho Mokoena Mamelodi Sundowns Actif 149 / 142 40% 2 10.11.2026 -
José Bernal Ethnikos Achnas Actif 108 / 105 40% 1 08.11.2026 -
Alexey Miranchuk Atlanta United FC Actif 156 / 131 40% 1 04.11.2026 -
Matías Pellegrini Vélez Actif 120 / 123 40% 1 01.11.2026 -
Diego Luna Real Salt Lake Actif 135 / 131 40% 1 31.10.2026 -
Cheikh Sabaly Vancouver Whitecaps Actif 113 / 120 40% 1 28.10.2026 -
Santiago Toloza O'Higgins Actif 114 / 124 40% 1 27.10.2026 -
Bradley Zwane SuperSport United Actif 119 / 105 40% 1 27.10.2026 -
Paxten Aaronson Colorado Rapids Actif 134 / 137 40% 1 18.10.2026 -
Amin Boudri Los Angeles Football Club Actif 114 / 115 40% 2 15.10.2026 -
Iván Angulo Orlando City Actif 129 / 128 40% 1 15.10.2026 -
Manu Morlanes Mallorca Actif 131 / 135 40% 1 14.10.2026 -
Elias Achouri San Diego Football Club Actif 131 / 121 40% 1 13.10.2026 -
Djordje Mihailović Toronto FC Actif 123 / 133 40% 1 12.10.2026 -
Conrad Wallem Djurgarden Actif 140 / 117 40% 1 08.10.2026 -
Gaspar Duarte Rosario Central Actif 111 / 113 40% 1 08.10.2026 -
Joaquín Pereyra Minnesota United FC Actif 136 / 140 40% 1 07.10.2026 -
Alejandro Pozo Standard Liege Actif 115 / 115 40% 1 06.10.2026 -
Kenji Cabrera Vancouver Whitecaps Actif 117 / 127 40% 1 05.10.2026 -
Luis Pavez Muñoz O'Higgins Actif 120 / 122 40% 1 09.09.2026 -
Christian Rivera Pachuca Actif 117 / 119 40% 1 08.09.2026 -
Richard Ledezma Guadalajara Actif 122 / 143 40% 1 07.09.2026 -
Sebastián Guzmán Deportes Tolima Actif 117 / 117 40% 1 26.08.2026 -
Fidel Ambríz Monterrey Actif 116 / 140 40% 1 26.08.2026 -
Enzo Giménez Queretaro Actif 130 / 117 40% 1 24.08.2026 -
Dylan Lozano Aguilas Doradas Actif 102 / 106 40% 1 21.08.2026 -
Ramiro Ruiz Rodríguez Atlético Tucumán Actif 118 / 124 40% 1 19.08.2026 -
Jeremy Márquez Cruz Azul Actif 134 / 130 40% 1 19.08.2026 -
José David Ramírez Leon Actif 103 / 111 40% 1 18.08.2026 -
Angel Zamudio Sport Huancayo Actif 112 / 116 40% 1 07.08.2026 -
Carlos Moreno Pachuca Actif 116 / 133 40% 1 07.08.2026 -
Matías Dufour Sportivo Trinidense Actif 109 / 113 40% 1 05.08.2026 -
Gonzalo Falcón Cienciano Actif 116 / 112 40% 1 05.08.2026 -
Beycker Velásquez Zamora Actif 97 / 96 40% 1 04.08.2026 -
Jorge Hernández Tijuana Actif 126 / 111 40% 1 04.08.2026 -
Facundo Miño Deportivo Riestra Actif 117 / 115 40% 1 03.08.2026 -
James Bacca La Equidad Actif 126 / 126 40% 1 03.08.2026 -
Lautaro Ríos Banfield Actif 117 / 121 40% 1 02.08.2026 -
Bautista Barros Schelotto Gimnasia La Plata Actif 109 / 109 40% 1 01.08.2026 -
Juan Cruz Komar Rosario Central Actif 122 / 121 40% 1 01.08.2026 -